createdAt,value
2023-05-11T00:01:12.197Z,6.80
2023-05-11T00:06:16.128Z,7.18
2023-05-11T00:11:20.232Z,6.05
2023-05-11T00:16:24.318Z,6.18
2023-05-11T00:21:28.437Z,6.00
2023-05-11T00:26:32.302Z,7.00
2023-05-11T00:31:36.574Z,6.90
2023-05-11T00:36:41.407Z,6.18
2023-05-11T00:41:45.737Z,7.25
2023-05-11T00:46:50.227Z,7.65
2023-05-11T00:51:54.416Z,6.72
2023-05-11T00:56:58.580Z,7.20
2023-05-11T01:02:03.790Z,7.10
2023-05-11T01:07:13.847Z,7.90
2023-05-11T01:12:23.698Z,12.38
2023-05-11T01:17:44.572Z,12.73
2023-05-11T01:23:19.055Z,9.93
2023-05-11T01:28:58.935Z,10.25
2023-05-11T01:34:07.112Z,10.10
2023-05-11T01:39:14.586Z,10.23
2023-05-11T01:44:22.416Z,9.75
2023-05-11T01:49:27.858Z,10.35
2023-05-11T01:54:33.282Z,8.85
2023-05-11T01:59:40.299Z,8.77
2023-05-11T02:04:46.710Z,9.38
2023-05-11T02:09:52.107Z,9.93
2023-05-11T02:14:58.360Z,10.05
2023-05-11T02:20:05.676Z,9.45
2023-05-11T02:25:11.236Z,7.70
2023-05-11T02:30:16.577Z,6.78
2023-05-11T02:35:30.817Z,5.80
2023-05-11T02:40:40.663Z,6.10
2023-05-11T02:45:48.004Z,8.40
2023-05-11T02:50:55.069Z,5.38
2023-05-11T02:56:01.872Z,3.50
2023-05-11T03:01:09.184Z,3.22
2023-05-11T03:06:13.648Z,2.80
2023-05-11T03:11:19.717Z,3.78
2023-05-11T03:16:27.831Z,3.63
2023-05-11T03:21:32.871Z,4.03
2023-05-11T03:26:38.381Z,4.03
2023-05-11T03:31:42.718Z,4.90
2023-05-11T03:36:50.875Z,5.80
2023-05-11T03:41:57.040Z,4.60
2023-05-11T03:47:04.485Z,3.67
2023-05-11T03:52:09.858Z,3.75
2023-05-11T03:57:16.433Z,4.55
2023-05-11T04:02:20.690Z,4.95
2023-05-11T04:07:24.771Z,4.35
2023-05-11T04:12:29.067Z,4.38
2023-05-11T04:17:32.956Z,5.30
2023-05-11T04:22:37.130Z,4.05
2023-05-11T04:27:41.556Z,4.35
2023-05-11T04:32:45.648Z,4.40
2023-05-11T04:37:49.675Z,5.40
2023-05-11T04:42:53.694Z,4.88
2023-05-11T04:47:57.986Z,4.20
2023-05-11T04:53:02.961Z,4.70
2023-05-11T04:58:07.234Z,4.50
2023-05-11T05:03:11.262Z,4.03
2023-05-11T05:08:15.886Z,5.32
2023-05-11T05:13:19.775Z,5.63
2023-05-11T05:18:23.897Z,5.85
2023-05-11T05:23:28.198Z,12.27
2023-05-11T05:28:32.172Z,12.63
2023-05-11T05:33:37.176Z,15.43
2023-05-11T05:38:41.085Z,12.25
2023-05-11T05:43:45.204Z,16.42
2023-05-11T05:48:50.013Z,22.45
2023-05-11T05:53:54.026Z,14.95
2023-05-11T05:58:58.168Z,14.27
2023-05-11T06:04:02.311Z,13.00
2023-05-11T06:09:08.870Z,15.90
2023-05-11T06:14:12.999Z,16.77
2023-05-11T06:19:18.299Z,18.83
2023-05-11T06:24:22.770Z,16.83
2023-05-11T06:29:26.944Z,16.35
2023-05-11T06:34:31.229Z,18.13
2023-05-11T06:39:38.861Z,19.27
2023-05-11T06:44:45.412Z,19.00
2023-05-11T06:49:49.689Z,18.95
2023-05-11T06:54:53.692Z,19.15
2023-05-11T06:59:57.754Z,19.70
2023-05-11T07:05:01.673Z,21.05
2023-05-11T07:10:08.126Z,20.73
2023-05-11T07:15:13.368Z,20.60
2023-05-11T07:20:18.243Z,22.10
2023-05-11T07:25:22.657Z,21.05
2023-05-11T07:30:26.772Z,19.58
2023-05-11T07:35:30.728Z,19.80
2023-05-11T07:40:36.408Z,19.52
2023-05-11T07:45:40.952Z,18.90
2023-05-11T07:50:45.543Z,19.65
2023-05-11T07:55:49.687Z,19.83
2023-05-11T08:00:53.817Z,19.20
2023-05-11T08:05:58.136Z,19.90
2023-05-11T08:11:02.513Z,18.92
2023-05-11T08:16:07.461Z,19.10
2023-05-11T08:21:12.427Z,16.67
2023-05-11T08:26:16.863Z,16.38
2023-05-11T08:31:20.730Z,17.17
2023-05-11T08:36:24.942Z,16.80
2023-05-11T08:41:28.994Z,16.27
2023-05-11T08:46:36.858Z,16.30
2023-05-11T08:51:41.640Z,15.52
2023-05-11T08:56:48.606Z,17.95
2023-05-11T09:01:54.020Z,16.52
2023-05-11T09:06:58.959Z,15.55
2023-05-11T09:12:03.292Z,17.83
2023-05-11T09:17:07.521Z,16.02
2023-05-11T09:22:11.694Z,15.35
2023-05-11T09:27:21.283Z,16.00
2023-05-11T09:32:25.866Z,14.98
2023-05-11T09:37:30.128Z,13.90
2023-05-11T09:42:34.251Z,15.27
2023-05-11T09:47:41.815Z,15.13
2023-05-11T09:52:53.062Z,14.35
2023-05-11T09:57:59.015Z,14.25
2023-05-11T10:03:08.515Z,13.93
2023-05-11T10:08:12.604Z,14.68
2023-05-11T10:13:17.606Z,14.75
2023-05-11T10:18:22.645Z,15.02
2023-05-11T10:23:34.638Z,14.48
2023-05-11T10:28:39.645Z,14.38
2023-05-11T10:33:44.374Z,14.55
2023-05-11T10:38:48.342Z,14.75
2023-05-11T10:44:36.639Z,14.60
2023-05-11T10:50:21.436Z,14.25
2023-05-11T10:56:06.883Z,13.80
2023-05-11T11:01:40.415Z,13.98
2023-05-11T11:06:45.135Z,12.82
2023-05-11T11:11:51.894Z,13.85
2023-05-11T11:17:43.769Z,14.00
2023-05-11T11:22:48.004Z,13.95
2023-05-11T11:27:53.386Z,13.23
2023-05-11T11:33:09.531Z,13.85
2023-05-11T11:38:22.439Z,14.15
2023-05-11T11:43:29.547Z,14.23
2023-05-11T11:48:38.468Z,16.02
2023-05-11T11:53:43.087Z,16.97
2023-05-11T11:58:47.305Z,18.42
2023-05-11T12:04:06.379Z,16.70
2023-05-11T12:09:10.530Z,15.57
2023-05-11T12:14:14.801Z,15.82
2023-05-11T12:19:25.511Z,15.85
2023-05-11T12:24:29.659Z,15.00
2023-05-11T12:29:34.109Z,14.85
2023-05-11T12:34:38.533Z,14.90
2023-05-11T12:39:42.583Z,14.68
2023-05-11T12:44:46.695Z,15.27
2023-05-11T12:49:51.611Z,15.13
2023-05-11T12:55:00.644Z,14.50
2023-05-11T13:00:16.211Z,15.48
2023-05-11T13:05:29.039Z,17.25
2023-05-11T13:10:33.291Z,15.25
2023-05-11T13:15:52.609Z,16.67
2023-05-11T13:21:10.302Z,16.35
2023-05-11T13:26:26.498Z,14.65
2023-05-11T13:31:30.693Z,17.13
2023-05-11T13:36:34.896Z,17.08
2023-05-11T13:41:39.303Z,15.05
2023-05-11T13:46:43.272Z,15.25
2023-05-11T13:51:47.245Z,14.82
2023-05-11T13:56:51.422Z,15.13
2023-05-11T14:01:55.547Z,16.27
2023-05-11T14:07:00.116Z,16.40
2023-05-11T14:12:04.228Z,14.27
2023-05-11T14:17:08.352Z,14.90
2023-05-11T14:22:12.283Z,14.70
2023-05-11T14:27:16.604Z,15.20
2023-05-11T14:32:20.924Z,15.95
2023-05-11T14:37:25.020Z,14.88
2023-05-11T14:42:30.366Z,15.15
2023-05-11T14:47:34.440Z,16.25
2023-05-11T14:52:38.464Z,16.52
2023-05-11T14:57:43.095Z,15.35
2023-05-11T15:02:48.109Z,15.35
2023-05-11T15:07:51.975Z,16.88
2023-05-11T15:12:56.436Z,20.33
2023-05-11T15:18:00.549Z,25.83
2023-05-11T15:23:06.731Z,23.75
2023-05-11T15:28:12.430Z,24.98
2023-05-11T15:33:17.428Z,32.53
2023-05-11T15:38:22.225Z,24.27
2023-05-11T15:43:26.370Z,17.38
2023-05-11T15:48:30.684Z,17.35
2023-05-11T15:53:34.660Z,31.75
2023-05-11T15:58:38.753Z,34.47
2023-05-11T16:03:42.728Z,23.58
2023-05-11T16:08:46.770Z,22.52
2023-05-11T16:13:50.971Z,24.95
2023-05-11T16:18:55.371Z,29.88
2023-05-11T16:24:00.697Z,25.77
2023-05-11T16:29:04.704Z,21.00
2023-05-11T16:34:09.136Z,21.23
2023-05-11T16:39:13.202Z,18.42
2023-05-11T16:44:17.295Z,18.48
2023-05-11T16:49:21.179Z,23.23
2023-05-11T16:54:27.123Z,19.85
2023-05-11T16:59:33.900Z,18.17
2023-05-11T17:04:37.972Z,23.48
2023-05-11T17:09:42.016Z,21.92
2023-05-11T17:14:46.073Z,20.10
2023-05-11T17:19:51.429Z,22.17
2023-05-11T17:24:55.260Z,20.67
2023-05-11T17:29:59.542Z,22.50
2023-05-11T17:35:04.803Z,23.13
2023-05-11T17:40:10.271Z,23.77
2023-05-11T17:45:14.621Z,24.10
2023-05-11T17:50:18.663Z,22.27
2023-05-11T17:55:22.813Z,19.48
2023-05-11T18:00:28.576Z,20.70
2023-05-11T18:05:44.700Z,21.17
2023-05-11T18:10:52.862Z,21.60
2023-05-11T18:16:00.546Z,24.23
2023-05-11T18:21:11.630Z,24.20
2023-05-11T18:26:17.074Z,25.67
2023-05-11T18:31:21.177Z,24.55
2023-05-11T18:36:25.040Z,22.45
2023-05-11T18:41:29.672Z,21.90
2023-05-11T18:46:33.600Z,22.98
2023-05-11T18:51:37.847Z,22.90
2023-05-11T18:56:41.853Z,23.88
2023-05-11T19:01:48.538Z,25.70
2023-05-11T19:06:53.388Z,23.85
2023-05-11T19:11:57.642Z,24.52
2023-05-11T19:17:02.905Z,24.05
2023-05-11T19:22:09.219Z,29.75
2023-05-11T19:27:14.007Z,40.63
2023-05-11T19:32:19.896Z,34.55
2023-05-11T19:37:23.761Z,30.27
2023-05-11T19:42:38.338Z,32.60
2023-05-11T19:47:43.513Z,28.88
2023-05-11T19:52:48.209Z,28.90
2023-05-11T19:57:52.481Z,24.80
2023-05-11T20:02:58.187Z,25.05
2023-05-11T20:08:02.246Z,26.10
2023-05-11T20:13:07.103Z,25.15
2023-05-11T20:18:11.454Z,24.98
2023-05-11T20:23:15.557Z,25.95
2023-05-11T20:28:22.905Z,25.52
2023-05-11T20:38:33.831Z,23.75
2023-05-11T20:43:37.868Z,27.27
2023-05-11T20:48:43.641Z,23.90
2023-05-11T20:53:50.493Z,26.52
2023-05-11T20:58:56.052Z,26.05
2023-05-11T21:04:00.051Z,25.80
2023-05-11T21:09:05.080Z,24.90
2023-05-11T21:14:09.154Z,28.98
2023-05-11T21:19:13.706Z,37.15
2023-05-11T21:24:18.904Z,27.83
2023-05-11T21:29:22.691Z,27.88
2023-05-11T21:34:26.682Z,25.35
2023-05-11T21:39:30.720Z,22.20
2023-05-11T21:44:34.542Z,25.80
2023-05-11T21:49:38.632Z,26.15
2023-05-11T21:54:42.495Z,25.23
2023-05-11T21:59:46.533Z,23.58
2023-05-11T22:04:51.368Z,22.17
2023-05-11T22:09:55.155Z,21.95
2023-05-11T22:14:59.461Z,21.92
2023-05-11T22:20:07.082Z,23.45
2023-05-11T22:25:11.701Z,23.40
2023-05-11T22:30:15.810Z,23.63
2023-05-11T22:35:20.168Z,28.23
2023-05-11T22:40:24.091Z,30.15
2023-05-11T22:45:28.051Z,26.83
2023-05-11T22:50:31.840Z,27.42
2023-05-11T22:55:35.974Z,23.58
2023-05-11T23:00:41.532Z,23.48
2023-05-11T23:05:45.377Z,22.90
2023-05-11T23:10:51.501Z,24.55
2023-05-11T23:15:55.366Z,23.77
2023-05-11T23:21:00.330Z,24.20
2023-05-11T23:26:04.530Z,24.23
2023-05-11T23:31:08.530Z,26.15
2023-05-11T23:36:12.398Z,24.52
2023-05-11T23:41:16.566Z,24.38
2023-05-11T23:46:20.586Z,27.23
2023-05-11T23:51:25.515Z,25.00
2023-05-11T23:56:29.641Z,23.50
